Time;durP1;ratioP1;P1;durP2;ratioP2;P2;SDS_P1;SDS_P2;PMS_P1;PMS_P2;Temp;Humidity;BMP_temperature;BMP_pressure;BME280_temperature;BME280_humidity;BME280_pressure;Samples;Min_cycle;Max_cycle;Signal;HPM_P1;HPM_P2
2022/03/24 00:01:28;;;;;;;91.53;47.97;;;3.60;99.90;;;;;;10120526;29;20216;-77
2022/03/24 00:06:50;;;;;;;97.17;51.67;;;3.80;99.90;;;;;;10090585;29;20203;-76
2022/03/24 00:12:13;;;;;;;72.67;43.47;;;3.80;99.90;;;;;;10120143;29;20597;-77
2022/03/24 00:17:35;;;;;;;91.27;50.07;;;3.80;99.90;;;;;;10097946;29;20245;-78
2022/03/24 00:22:57;;;;;;;77.83;43.97;;;3.90;99.90;;;;;;10144460;29;20263;-77
2022/03/24 00:28:19;;;;;;;84.33;49.97;;;3.90;99.90;;;;;;10125957;29;20487;-78
2022/03/24 00:33:41;;;;;;;88.47;51.73;;;3.80;99.90;;;;;;10079865;29;20240;-79
2022/03/24 00:39:03;;;;;;;82.20;48.27;;;3.70;99.90;;;;;;10094514;29;20207;-78
2022/03/24 00:44:26;;;;;;;88.17;51.47;;;3.60;99.90;;;;;;10066832;29;20428;-77
2022/03/24 00:49:48;;;;;;;93.10;54.23;;;3.60;99.90;;;;;;10106296;29;20233;-80
2022/03/24 00:55:15;;;;;;;76.97;45.43;;;3.60;99.90;;;;;;10104836;29;20402;-80
2022/03/24 01:00:38;;;;;;;73.63;40.67;;;3.50;99.90;;;;;;10083582;29;20231;-80
2022/03/24 01:06:03;;;;;;;59.50;34.87;;;3.40;99.90;;;;;;10117502;29;20512;-79
2022/03/24 01:11:25;;;;;;;61.63;35.43;;;3.30;99.90;;;;;;10104506;29;20279;-79
2022/03/24 01:16:47;;;;;;;63.83;37.30;;;3.20;99.90;;;;;;10098664;29;20412;-77
2022/03/24 01:22:09;;;;;;;66.47;36.33;;;3.30;99.90;;;;;;10139004;29;20224;-79
2022/03/24 01:27:31;;;;;;;69.03;38.27;;;3.30;99.90;;;;;;10124628;29;20224;-79
2022/03/24 01:32:53;;;;;;;67.87;38.93;;;3.20;99.90;;;;;;10079512;29;20548;-77
2022/03/24 01:38:16;;;;;;;73.97;41.37;;;3.10;99.90;;;;;;10096468;29;20257;-77
2022/03/24 01:43:40;;;;;;;74.20;41.83;;;3.00;99.90;;;;;;10078321;29;20209;-77
2022/03/24 01:49:03;;;;;;;78.73;42.13;;;3.00;99.90;;;;;;10096449;29;20274;-77
2022/03/24 01:54:30;;;;;;;73.83;42.80;;;3.00;99.90;;;;;;10120316;29;20223;-80
2022/03/24 01:59:52;;;;;;;73.20;42.03;;;2.80;99.90;;;;;;10108922;29;20214;-80
2022/03/24 02:05:14;;;;;;;75.20;43.60;;;2.70;99.90;;;;;;10065260;29;20431;-79
2022/03/24 02:10:38;;;;;;;75.67;42.60;;;2.60;99.90;;;;;;10090364;29;20429;-79
2022/03/24 02:16:01;;;;;;;76.70;42.70;;;2.60;99.90;;;;;;10102971;29;20221;-79
2022/03/24 02:21:23;;;;;;;66.17;38.80;;;2.70;99.90;;;;;;10127277;29;20601;-79
2022/03/24 02:26:50;;;;;;;62.90;34.57;;;2.70;99.90;;;;;;10157914;29;20279;-79
2022/03/24 02:32:20;;;;;;;55.13;33.37;;;3.00;99.90;;;;;;10107659;29;20651;-79
2022/03/24 02:37:43;;;;;;;61.17;34.07;;;3.00;99.90;;;;;;10118344;29;20230;-78
2022/03/24 02:43:05;;;;;;;48.77;29.23;;;3.00;99.90;;;;;;10084997;29;20221;-79
2022/03/24 02:48:28;;;;;;;52.40;30.67;;;3.00;99.90;;;;;;10085884;29;20212;-79
2022/03/24 02:53:51;;;;;;;50.83;28.47;;;2.90;99.90;;;;;;10082932;29;20539;-79
2022/03/24 02:59:13;;;;;;;50.67;27.30;;;2.90;99.90;;;;;;10122256;29;20241;-79
2022/03/24 03:04:35;;;;;;;44.07;26.33;;;2.90;99.90;;;;;;10123057;29;20211;-79
2022/03/24 03:09:57;;;;;;;37.67;22.70;;;3.00;99.90;;;;;;10087034;29;20226;-77
2022/03/24 03:15:19;;;;;;;44.57;25.13;;;2.90;99.90;;;;;;10101769;29;20401;-79
2022/03/24 03:20:42;;;;;;;38.20;24.93;;;2.90;99.90;;;;;;10083993;29;20273;-78
2022/03/24 03:26:05;;;;;;;45.77;27.33;;;2.90;99.90;;;;;;10090504;29;20209;-77
2022/03/24 03:31:28;;;;;;;52.47;32.53;;;2.90;99.90;;;;;;10098212;29;20245;-79
2022/03/24 03:36:50;;;;;;;55.77;32.80;;;2.80;99.90;;;;;;10062294;29;20309;-79
2022/03/24 03:42:13;;;;;;;57.83;36.17;;;2.70;99.90;;;;;;10082850;29;20274;-79
2022/03/24 03:47:35;;;;;;;70.23;38.33;;;2.50;99.90;;;;;;10096738;29;20206;-79
2022/03/24 03:52:57;;;;;;;72.10;40.17;;;2.40;99.90;;;;;;10124867;29;20446;-78
2022/03/24 03:58:19;;;;;;;64.80;39.47;;;2.30;99.90;;;;;;10103564;29;20202;-78
2022/03/24 04:03:41;;;;;;;66.67;38.93;;;2.30;99.90;;;;;;10052896;29;20233;-78
2022/03/24 04:09:03;;;;;;;65.60;38.37;;;2.30;99.90;;;;;;10107098;29;20213;-79
2022/03/24 04:14:25;;;;;;;58.53;35.87;;;2.30;99.90;;;;;;10119958;29;20216;-79
2022/03/24 04:19:47;;;;;;;66.27;37.63;;;2.30;99.90;;;;;;10109399;29;20208;-77
2022/03/24 04:25:09;;;;;;;66.13;37.87;;;2.40;99.90;;;;;;10158488;29;20507;-77
2022/03/24 04:30:32;;;;;;;63.63;36.87;;;2.40;99.90;;;;;;10085537;29;20230;-78
2022/03/24 04:35:54;;;;;;;60.20;34.90;;;2.40;99.90;;;;;;10097661;29;20241;-78
2022/03/24 04:41:21;;;;;;;72.50;37.83;;;2.30;99.90;;;;;;10105409;29;20226;-79
2022/03/24 04:46:43;;;;;;;64.50;37.33;;;2.20;99.90;;;;;;10098637;29;20215;-79
2022/03/24 04:52:06;;;;;;;67.67;40.27;;;2.00;99.90;;;;;;10098523;29;20274;-79
2022/03/24 04:57:29;;;;;;;67.20;36.93;;;2.10;99.90;;;;;;10079553;29;20292;-78
2022/03/24 05:02:51;;;;;;;62.73;36.73;;;2.10;99.90;;;;;;10080674;29;20262;-80
2022/03/24 05:08:15;;;;;;;65.00;34.93;;;2.10;99.90;;;;;;10097407;29;20537;-79
2022/03/24 05:13:37;;;;;;;46.70;30.37;;;2.20;99.90;;;;;;10118544;29;20438;-78
2022/03/24 05:18:59;;;;;;;46.60;27.10;;;2.40;99.90;;;;;;10119627;29;20208;-78
2022/03/24 05:24:21;;;;;;;45.13;27.63;;;2.70;99.90;;;;;;10140141;29;20239;-76
2022/03/24 05:29:42;;;;;;;47.80;26.50;;;2.90;99.90;;;;;;10083812;29;20213;-77
2022/03/24 05:35:05;;;;;;;42.83;25.53;;;3.10;99.90;;;;;;10084538;29;20272;-76
2022/03/24 05:40:27;;;;;;;49.90;27.10;;;3.20;99.90;;;;;;10086266;29;20273;-79
2022/03/24 05:45:50;;;;;;;53.90;32.30;;;3.50;99.90;;;;;;10101407;29;20285;-79
2022/03/24 05:51:12;;;;;;;56.57;29.83;;;3.50;99.90;;;;;;10117761;29;20233;-79
2022/03/24 05:56:34;;;;;;;45.73;25.00;;;3.60;99.90;;;;;;10091696;29;20210;-79
2022/03/24 06:01:57;;;;;;;40.20;23.57;;;3.70;99.90;;;;;;10081738;29;20389;-78
2022/03/24 06:07:19;;;;;;;40.60;24.27;;;3.90;99.90;;;;;;10094055;29;20206;-79
2022/03/24 06:12:41;;;;;;;41.70;24.00;;;3.90;99.90;;;;;;10123689;29;20283;-80
2022/03/24 06:18:04;;;;;;;41.10;22.43;;;4.20;99.90;;;;;;10106849;29;20246;-80
2022/03/24 06:23:26;;;;;;;35.97;22.90;;;4.40;99.90;;;;;;10163086;29;20217;-78
2022/03/24 06:28:48;;;;;;;41.73;23.37;;;4.70;99.90;;;;;;10123964;29;20236;-77
2022/03/24 06:34:12;;;;;;;36.87;22.07;;;5.00;99.90;;;;;;10085704;29;20436;-78
2022/03/24 06:39:34;;;;;;;41.60;22.67;;;5.20;99.90;;;;;;10085436;29;20565;-76
2022/03/24 06:44:56;;;;;;;53.87;29.00;;;5.30;99.90;;;;;;10085667;29;20396;-81
2022/03/24 06:50:17;;;;;;;63.10;36.60;;;5.60;99.90;;;;;;10099566;29;20296;-81
2022/03/24 06:55:39;;;;;;;48.37;26.50;;;5.90;99.90;;;;;;10110553;29;20215;-79
2022/03/24 07:01:02;;;;;;;53.47;28.77;;;6.20;99.90;;;;;;10105869;29;20215;-80
2022/03/24 07:06:24;;;;;;;44.97;27.20;;;6.80;99.90;;;;;;10121814;29;20213;-80
2022/03/24 07:11:46;;;;;;;31.90;19.13;;;8.60;98.50;;;;;;10082605;29;20274;-81
2022/03/24 07:17:10;;;;;;;32.40;18.73;;;10.90;81.00;;;;;;10109683;29;20212;-81
2022/03/24 07:22:33;;;;;;;24.40;16.35;;;12.50;54.70;;;;;;10122994;29;20215;-80
2022/03/24 07:27:55;;;;;;;24.70;16.70;;;13.70;43.80;;;;;;10121512;29;20257;-76
2022/03/24 07:33:19;;;;;;;28.10;17.35;;;14.80;37.50;;;;;;10104844;29;20260;-76
2022/03/24 07:38:42;;;;;;;25.40;16.73;;;15.70;31.90;;;;;;10097722;29;20233;-77
2022/03/24 07:44:04;;;;;;;26.90;17.45;;;16.30;28.20;;;;;;10082703;29;20282;-77
2022/03/24 07:49:27;;;;;;;24.65;15.10;;;16.60;26.50;;;;;;10090862;29;20573;-81
2022/03/24 07:54:56;;;;;;;21.60;12.95;;;17.20;25.10;;;;;;10120632;29;20237;-80
2022/03/24 08:00:18;;;;;;;17.67;11.73;;;;;;;;;;10119238;29;20218;-81
2022/03/24 08:05:40;;;;;;;20.48;11.98;;;18.00;21.50;;;;;;10119433;29;20209;-81
2022/03/24 08:11:03;;;;;;;18.02;10.80;;;18.30;21.10;;;;;;10072271;29;20292;-82
2022/03/24 08:16:25;;;;;;;23.00;12.02;;;18.80;20.60;;;;;;10108146;29;20508;-79
2022/03/24 08:21:48;;;;;;;20.50;11.73;;;19.40;18.90;;;;;;10135302;29;20209;-77
2022/03/24 08:27:10;;;;;;;15.60;10.25;;;19.50;18.00;;;;;;10151639;29;20221;-77
2022/03/24 08:32:32;;;;;;;15.52;10.80;;;19.70;17.80;;;;;;10064550;29;20453;-79
2022/03/24 08:37:59;;;;;;;16.70;10.15;;;20.00;17.00;;;;;;10112246;29;20247;-76
2022/03/24 08:43:21;;;;;;;14.35;9.82;;;19.90;16.70;;;;;;10101317;29;20551;-78
2022/03/24 08:48:44;;;;;;;18.33;10.15;;;20.60;16.30;;;;;;10077612;29;20217;-78
2022/03/24 08:54:07;;;;;;;16.67;10.20;;;20.40;16.30;;;;;;10119259;29;20249;-77
2022/03/24 08:59:30;;;;;;;18.70;10.13;;;20.60;15.80;;;;;;10092893;29;20549;-78
2022/03/24 09:04:52;;;;;;;15.93;9.57;;;20.80;15.60;;;;;;10058223;29;20218;-77
2022/03/24 09:10:28;;;;;;;18.20;9.27;;;21.10;15.30;;;;;;10097516;29;20234;-78
2022/03/24 09:15:50;;;;;;;12.90;8.77;;;21.40;15.30;;;;;;10109991;29;20536;-77
2022/03/24 09:21:13;;;;;;;12.77;8.75;;;21.70;14.50;;;;;;10101758;29;20520;-77
2022/03/24 09:26:37;;;;;;;13.30;7.55;;;22.00;14.00;;;;;;10088919;29;20257;-77
2022/03/24 09:32:00;;;;;;;15.32;8.05;;;22.40;13.20;;;;;;10045753;29;20468;-78
2022/03/24 09:37:22;;;;;;;14.75;7.85;;;22.10;13.20;;;;;;10112092;29;20251;-78
2022/03/24 09:42:44;;;;;;;10.90;8.52;;;21.80;13.50;;;;;;10106550;29;20223;-78
2022/03/24 09:48:06;;;;;;;14.32;8.00;;;21.70;13.60;;;;;;10111620;29;20321;-78
2022/03/24 09:53:28;;;;;;;14.02;7.43;;;21.90;13.20;;;;;;10081898;29;20571;-77
2022/03/24 09:58:50;;;;;;;14.88;7.82;;;21.70;13.20;;;;;;10064620;29;20271;-78
2022/03/24 10:04:18;;;;;;;13.30;8.02;;;22.20;12.90;;;;;;10118253;29;20217;-77
2022/03/24 10:09:48;;;;;;;12.30;7.55;;;22.60;12.50;;;;;;10118392;29;20607;-79
2022/03/24 10:15:12;;;;;;;11.52;7.03;;;22.80;12.10;;;;;;10096863;29;20253;-77
2022/03/24 10:20:34;;;;;;;11.65;7.50;;;22.80;11.90;;;;;;10122441;29;20219;-77
2022/03/24 10:26:03;;;;;;;10.40;6.47;;;23.10;11.90;;;;;;10081449;29;20219;-77
2022/03/24 10:31:44;;;;;;;12.75;7.93;;;23.20;11.30;;;;;;10102326;29;20238;-77
2022/03/24 10:37:09;;;;;;;19.13;7.43;;;23.30;10.70;;;;;;10111915;29;20253;-78
2022/03/24 10:42:40;;;;;;;14.25;7.80;;;23.00;11.20;;;;;;10083153;29;20572;-77
2022/03/24 10:48:02;;;;;;;10.63;6.90;;;23.70;10.60;;;;;;10078013;29;20215;-77
2022/03/24 10:53:24;;;;;;;10.18;6.95;;;23.30;10.50;;;;;;10079918;29;20245;-79
2022/03/24 10:58:56;;;;;;;8.90;6.22;;;23.70;10.80;;;;;;10081671;29;20220;-77
2022/03/24 11:04:19;;;;;;;12.23;6.65;;;23.50;10.00;;;;;;10078908;29;20226;-78
2022/03/24 11:09:42;;;;;;;9.35;6.57;;;23.30;10.20;;;;;;10090751;29;20214;-79
2022/03/24 11:15:07;;;;;;;8.82;5.82;;;23.30;10.20;;;;;;10096789;29;20273;-77
2022/03/24 11:20:38;;;;;;;12.13;6.15;;;23.20;10.20;;;;;;10069304;29;20278;-78
2022/03/24 11:26:03;;;;;;;11.73;6.57;;;23.20;10.30;;;;;;10078106;29;20342;-82
2022/03/24 11:31:31;;;;;;;12.93;6.97;;;23.30;10.50;;;;;;10116515;29;20269;-83
2022/03/24 11:36:54;;;;;;;11.70;6.43;;;23.50;10.40;;;;;;10120955;29;20238;-83
2022/03/24 11:42:16;;;;;;;15.07;6.90;;;23.60;10.30;;;;;;10093975;29;20248;-83
2022/03/24 11:48:06;;;;;;;15.10;8.32;;;24.10;9.70;;;;;;10100126;29;20254;-81
2022/03/24 11:53:29;;;;;;;14.13;8.65;;;24.10;9.50;;;;;;10114118;29;20543;-83
2022/03/24 11:58:54;;;;;;;9.52;6.90;;;23.70;10.00;;;;;;10112256;29;20413;-85
2022/03/24 12:04:17;;;;;;;14.45;9.32;;;23.60;10.00;;;;;;10060359;29;20270;-80
2022/03/24 12:10:04;;;;;;;31.60;20.33;;;23.60;10.10;;;;;;10085554;29;20229;-82
2022/03/24 12:15:26;;;;;;;18.98;10.32;;;23.40;10.30;;;;;;10085957;29;20460;-87
2022/03/24 12:21:04;;;;;;;23.92;11.68;;;23.50;10.10;;;;;;10068411;29;20577;-81
2022/03/24 12:26:30;;;;;;;16.33;10.55;;;23.40;10.00;;;;;;10109942;29;20280;-81
2022/03/24 12:32:05;;;;;;;16.58;10.43;;;23.30;10.00;;;;;;10123731;29;20241;-78
2022/03/24 12:37:30;;;;;;;17.17;8.27;;;23.60;10.00;;;;;;10047571;29;20265;-79
2022/03/24 12:42:53;;;;;;;13.60;7.93;;;23.20;10.30;;;;;;10038437;29;20468;-83
2022/03/24 12:48:18;;;;;;;12.50;7.70;;;23.00;10.40;;;;;;10078358;29;20217;-81
2022/03/24 12:54:01;;;;;;;18.77;7.97;;;23.10;10.20;;;;;;10072008;29;20234;-79
2022/03/24 12:59:23;;;;;;;18.55;10.05;;;22.50;10.20;;;;;;10060285;29;20210;-78
2022/03/24 13:04:53;;;;;;;17.60;9.90;;;21.80;11.50;;;;;;10077029;29;20218;-83
2022/03/24 13:10:15;;;;;;;15.10;8.43;;;21.30;12.00;;;;;;10067250;29;20214;-85
2022/03/24 13:15:38;;;;;;;14.95;8.10;;;21.60;11.60;;;;;;10061014;29;20238;-83
2022/03/24 13:21:01;;;;;;;15.45;9.30;;;22.00;11.40;;;;;;10061724;29;20397;-82
2022/03/24 13:26:23;;;;;;;14.95;8.70;;;22.00;11.20;;;;;;10039030;29;20709;-82
2022/03/24 13:31:45;;;;;;;14.18;8.02;;;22.00;11.30;;;;;;10071960;29;20246;-83
2022/03/24 13:37:12;;;;;;;13.93;9.90;;;21.60;11.90;;;;;;10051708;29;20241;-81
2022/03/24 13:42:35;;;;;;;15.02;9.75;;;21.40;12.00;;;;;;10058697;29;20222;-79
2022/03/24 13:48:00;;;;;;;20.38;11.82;;;21.30;12.40;;;;;;10074811;29;20505;-82
2022/03/24 13:53:27;;;;;;;21.20;9.98;;;21.30;12.80;;;;;;10061376;29;20291;-81
2022/03/24 13:59:00;;;;;;;19.75;10.93;;;20.90;12.60;;;;;;10045444;29;20214;-79
2022/03/24 14:04:22;;;;;;;34.63;11.02;;;20.60;13.20;;;;;;10057886;29;20245;-77
2022/03/24 14:09:54;;;;;;;17.75;9.77;;;20.30;13.70;;;;;;10072484;29;20367;-80
2022/03/24 14:15:21;;;;;;;11.90;9.02;;;20.00;13.80;;;;;;10077027;29;20445;-80
2022/03/24 14:20:47;;;;;;;18.98;11.23;;;19.50;14.10;;;;;;10085832;29;20444;-78
2022/03/24 14:26:11;;;;;;;26.30;11.05;;;19.10;14.90;;;;;;10066273;29;20615;-79
2022/03/24 14:31:33;;;;;;;18.77;10.82;;;18.60;15.60;;;;;;10089431;29;20258;-78
2022/03/24 14:36:55;;;;;;;19.27;10.02;;;18.30;16.00;;;;;;10093421;29;20626;-79
2022/03/24 14:42:19;;;;;;;12.98;9.18;;;17.90;16.20;;;;;;10116578;29;20217;-77
2022/03/24 14:47:41;;;;;;;15.82;9.50;;;17.60;16.70;;;;;;10105579;29;20366;-79
2022/03/24 14:53:05;;;;;;;21.98;11.20;;;17.30;17.20;;;;;;10124468;29;20252;-78
2022/03/24 14:58:29;;;;;;;16.40;9.48;;;17.10;17.30;;;;;;10102760;29;20243;-78
2022/03/24 15:03:52;;;;;;;18.45;10.57;;;17.00;17.60;;;;;;10108205;29;20209;-79
2022/03/24 15:09:14;;;;;;;16.20;10.18;;;16.70;17.60;;;;;;10120882;29;20222;-79
2022/03/24 15:20:17;;;;;;;16.98;9.20;;;16.40;18.00;;;;;;10123814;29;20214;-79
2022/03/24 15:25:41;;;;;;;16.88;9.45;;;16.60;17.90;;;;;;10133140;29;20252;-79
2022/03/24 15:31:03;;;;;;;18.73;8.93;;;16.60;17.90;;;;;;10134610;29;20212;-78
2022/03/24 15:36:25;;;;;;;20.38;8.57;;;16.50;18.10;;;;;;10100021;29;20605;-79
2022/03/24 15:41:48;;;;;;;19.75;10.32;;;16.20;18.30;;;;;;10115131;29;20225;-78
2022/03/24 15:47:10;;;;;;;17.45;9.35;;;15.90;18.60;;;;;;10102086;29;20219;-79
2022/03/24 15:52:33;;;;;;;20.30;11.50;;;15.60;19.50;;;;;;10093128;29;20409;-78
2022/03/24 15:57:54;;;;;;;19.63;10.48;;;15.50;19.20;;;;;;10120637;29;20212;-79
2022/03/24 16:03:16;;;;;;;20.00;10.43;;;15.30;19.50;;;;;;10116118;29;20249;-77
2022/03/24 16:08:38;;;;;;;16.80;10.90;;;15.10;19.90;;;;;;10132505;29;20452;-80
2022/03/24 16:14:00;;;;;;;15.60;9.05;;;14.90;20.40;;;;;;10149140;29;20247;-78
2022/03/24 16:19:23;;;;;;;20.00;10.85;;;14.80;20.50;;;;;;10120104;29;20428;-79
2022/03/24 16:24:44;;;;;;;37.50;19.67;;;14.70;20.80;;;;;;10090143;29;20217;-78
2022/03/24 16:30:08;;;;;;;42.33;24.85;;;14.60;21.10;;;;;;10114804;29;20220;-79
2022/03/24 16:35:30;;;;;;;28.17;16.35;;;14.40;21.00;;;;;;10100527;29;20256;-78
2022/03/24 16:40:52;;;;;;;20.85;11.63;;;14.40;21.60;;;;;;10106494;29;20465;-78
2022/03/24 16:46:14;;;;;;;18.08;11.02;;;14.30;22.00;;;;;;10123604;29;20514;-78
2022/03/24 16:51:37;;;;;;;17.48;11.20;;;14.20;22.50;;;;;;10106670;29;20252;-80
2022/03/24 16:56:59;;;;;;;17.63;12.70;;;14.00;22.80;;;;;;10064180;29;20265;-80
2022/03/24 17:02:21;;;;;;;26.63;14.23;;;13.80;23.20;;;;;;10067097;29;20287;-79
2022/03/24 17:07:43;;;;;;;25.13;16.33;;;13.70;23.60;;;;;;10080501;29;20390;-78
2022/03/24 17:13:05;;;;;;;25.20;15.40;;;13.40;24.40;;;;;;10067291;29;20244;-79
2022/03/24 17:18:28;;;;;;;31.83;15.95;;;13.30;25.00;;;;;;10112351;29;20206;-78
2022/03/24 17:23:50;;;;;;;35.45;18.70;;;13.00;25.50;;;;;;10069864;29;20220;-78
2022/03/24 17:29:12;;;;;;;28.95;17.70;;;12.80;26.40;;;;;;10097005;29;20545;-78
2022/03/24 17:34:34;;;;;;;33.80;19.23;;;12.60;26.80;;;;;;10112614;29;20328;-77
2022/03/24 17:39:56;;;;;;;32.55;19.63;;;12.40;27.90;;;;;;10104505;29;20405;-80
2022/03/24 17:45:22;;;;;;;43.22;22.38;;;12.20;28.80;;;;;;10121345;29;20255;-80
2022/03/24 17:50:45;;;;;;;67.32;29.23;;;12.00;30.20;;;;;;10115772;29;20212;-78
2022/03/24 17:56:07;;;;;;;94.82;41.70;;;11.90;32.00;;;;;;10080644;29;20241;-77
2022/03/24 18:01:29;;;;;;;97.82;48.08;;;11.80;33.30;;;;;;10086583;29;20211;-78
2022/03/24 18:06:51;;;;;;;120.15;54.25;;;11.70;35.20;;;;;;10087786;29;20228;-78
2022/03/24 18:12:13;;;;;;;118.53;56.05;;;11.60;37.90;;;;;;10086157;29;20231;-79
2022/03/24 18:17:39;;;;;;;142.57;66.43;;;11.40;41.30;;;;;;10120515;29;20216;-78
2022/03/24 18:23:02;;;;;;;165.93;78.93;;;11.20;45.80;;;;;;10096915;29;20209;-80
2022/03/24 18:28:24;;;;;;;174.25;86.65;;;11.10;48.10;;;;;;10109469;29;20395;-78
2022/03/24 18:33:46;;;;;;;162.52;80.90;;;10.90;51.50;;;;;;10109853;29;20238;-81
2022/03/24 18:39:08;;;;;;;156.07;69.35;;;10.80;54.30;;;;;;10123815;29;20217;-78
2022/03/24 18:44:29;;;;;;;183.25;72.32;;;10.60;56.60;;;;;;10123875;29;20210;-81
2022/03/24 18:49:52;;;;;;;193.18;78.97;;;10.50;58.90;;;;;;10092651;29;20231;-78
2022/03/24 18:55:15;;;;;;;158.85;71.20;;;10.50;59.90;;;;;;10091352;29;20250;-79
2022/03/24 19:00:39;;;;;;;113.87;55.07;;;10.50;61.90;;;;;;10085152;29;20255;-78
2022/03/24 19:06:04;;;;;;;85.75;47.13;;;10.40;63.80;;;;;;10084839;29;20219;-78
2022/03/24 19:11:26;;;;;;;69.47;40.05;;;10.40;64.30;;;;;;10106396;29;20212;-78
2022/03/24 19:16:48;;;;;;;66.20;38.83;;;10.40;64.40;;;;;;10121458;29;20411;-79
2022/03/24 19:22:10;;;;;;;60.88;35.17;;;10.20;68.10;;;;;;10122272;29;20241;-79
2022/03/24 19:27:32;;;;;;;52.90;31.77;;;10.00;70.20;;;;;;10108221;29;20217;-80
2022/03/24 19:32:55;;;;;;;63.77;34.23;;;9.90;74.60;;;;;;10120858;29;20555;-78
2022/03/24 19:38:18;;;;;;;58.67;32.60;;;9.90;76.00;;;;;;10149510;29;20250;-78
2022/03/24 19:43:40;;;;;;;49.17;29.20;;;9.80;76.10;;;;;;10093838;29;20237;-79
2022/03/24 19:49:04;;;;;;;42.83;24.00;;;9.70;79.20;;;;;;10121654;29;20233;-79
2022/03/24 19:54:26;;;;;;;36.03;21.30;;;9.70;79.60;;;;;;10120077;29;20235;-78
2022/03/24 19:59:49;;;;;;;42.50;19.87;;;9.70;79.80;;;;;;10120237;29;20515;-78
2022/03/24 20:05:12;;;;;;;36.67;18.40;;;9.60;80.00;;;;;;10104220;29;20241;-79
2022/03/24 20:10:34;;;;;;;38.53;16.93;;;9.50;81.20;;;;;;10105419;29;20202;-77
2022/03/24 20:15:56;;;;;;;35.10;16.83;;;9.40;82.30;;;;;;10104803;29;20607;-78
2022/03/24 20:21:18;;;;;;;29.47;16.07;;;9.30;83.50;;;;;;10103516;29;20210;-79
2022/03/24 20:26:41;;;;;;;35.37;17.00;;;9.30;84.90;;;;;;10118897;29;20216;-79
2022/03/24 20:32:09;;;;;;;33.00;17.70;;;9.20;85.60;;;;;;10119845;29;20468;-78
2022/03/24 20:37:32;;;;;;;37.77;19.33;;;9.20;85.60;;;;;;10116416;29;20544;-79
2022/03/24 20:42:54;;;;;;;38.53;20.57;;;9.10;86.00;;;;;;10098316;29;20232;-78
2022/03/24 20:48:26;;;;;;;37.10;21.37;;;9.10;85.40;;;;;;10110470;29;20220;-77
2022/03/24 20:53:48;;;;;;;37.10;22.10;;;9.00;86.90;;;;;;10067570;29;20241;-76
2022/03/24 20:59:10;;;;;;;46.27;23.67;;;8.90;87.80;;;;;;10080696;29;20208;-78
2022/03/24 21:04:32;;;;;;;35.80;21.67;;;8.80;90.00;;;;;;10080185;29;20531;-77
2022/03/24 21:09:54;;;;;;;44.50;24.50;;;8.60;90.80;;;;;;10066437;29;20208;-77
2022/03/24 21:15:17;;;;;;;35.33;21.17;;;8.50;91.30;;;;;;10096607;29;20547;-77
2022/03/24 21:20:41;;;;;;;34.67;20.73;;;8.60;92.00;;;;;;10104402;29;20222;-77
2022/03/24 21:26:04;;;;;;;38.47;22.27;;;8.50;92.40;;;;;;10072835;29;20213;-76
2022/03/24 21:31:25;;;;;;;40.37;21.93;;;8.40;93.10;;;;;;10091241;29;20390;-77
2022/03/24 21:36:47;;;;;;;37.37;21.13;;;8.30;93.60;;;;;;10117367;29;20259;-78
2022/03/24 21:42:09;;;;;;;38.27;22.50;;;8.30;94.30;;;;;;10118024;29;20530;-76
2022/03/24 21:47:31;;;;;;;38.33;20.27;;;8.20;95.00;;;;;;10117673;29;20538;-78
2022/03/24 21:52:54;;;;;;;37.57;20.17;;;8.00;95.30;;;;;;10087157;29;20241;-78
2022/03/24 21:58:16;;;;;;;35.60;19.37;;;7.90;95.00;;;;;;10079547;29;20217;-78
2022/03/24 22:03:38;;;;;;;31.23;18.03;;;7.80;94.50;;;;;;10079009;29;20413;-77
2022/03/24 22:09:06;;;;;;;32.17;18.10;;;7.70;94.00;;;;;;10050431;29;20213;-78
2022/03/24 22:14:28;;;;;;;31.47;18.27;;;7.60;94.00;;;;;;10089414;29;20239;-78
2022/03/24 22:19:50;;;;;;;29.40;17.33;;;7.40;93.20;;;;;;10110197;29;20205;-78
2022/03/24 22:25:12;;;;;;;31.07;18.13;;;7.30;93.20;;;;;;10078867;29;20213;-77
2022/03/24 22:30:35;;;;;;;31.90;18.20;;;7.20;92.80;;;;;;10115771;29;20557;-77
2022/03/24 22:35:57;;;;;;;39.53;24.73;;;7.10;92.60;;;;;;10106622;29;20280;-78
2022/03/24 22:41:19;;;;;;;32.43;19.50;;;7.20;95.90;;;;;;10078327;29;20199;-78
2022/03/24 22:46:41;;;;;;;48.90;32.73;;;;;;;;;;10088638;29;20211;-77
2022/03/24 22:52:04;;;;;;;52.23;33.47;;;6.80;93.10;;;;;;10097502;29;20210;-78
2022/03/24 22:57:25;;;;;;;34.77;21.13;;;6.80;92.10;;;;;;10071266;29;20232;-79
2022/03/24 23:02:48;;;;;;;29.17;17.43;;;6.80;90.60;;;;;;10084563;29;20583;-82
2022/03/24 23:08:10;;;;;;;25.77;16.20;;;6.70;89.10;;;;;;10083685;29;20223;-79
2022/03/24 23:13:32;;;;;;;26.70;15.53;;;6.70;87.50;;;;;;10084240;29;20231;-78
2022/03/24 23:18:54;;;;;;;25.63;15.53;;;6.70;89.20;;;;;;10065952;29;20258;-79
2022/03/24 23:24:19;;;;;;;40.57;21.20;;;6.60;88.00;;;;;;10045879;29;20431;-78
2022/03/24 23:29:41;;;;;;;61.60;36.03;;;6.60;89.50;;;;;;10044451;29;20256;-77
2022/03/24 23:35:04;;;;;;;46.43;26.40;;;6.50;88.70;;;;;;10074588;29;20265;-77
2022/03/24 23:40:26;;;;;;;32.73;19.20;;;6.40;89.40;;;;;;10105361;29;20256;-77
2022/03/24 23:45:48;;;;;;;31.97;18.07;;;6.50;88.80;;;;;;10121655;29;20241;-79
2022/03/24 23:51:10;;;;;;;29.57;17.07;;;6.40;89.00;;;;;;10085901;29;20240;-78
2022/03/24 23:56:32;;;;;;;24.90;15.57;;;6.40;90.00;;;;;;10082561;29;20232;-78
